createdAt,value
2022-12-03T00:01:08.193Z,78709.53
2022-12-03T00:03:37.628Z,78740.50
2022-12-03T00:06:06.647Z,78723.34
2022-12-03T00:08:35.265Z,78737.88
2022-12-03T00:11:04.311Z,78700.28
2022-12-03T00:13:32.834Z,78734.56
2022-12-03T00:16:01.813Z,78735.22
2022-12-03T00:18:30.781Z,78705.53
2022-12-03T00:20:59.576Z,78734.56
2022-12-03T00:23:28.186Z,78749.72
2022-12-03T00:25:56.970Z,78704.84
2022-12-03T00:28:25.646Z,78745.72
2022-12-03T00:30:55.074Z,78712.03
2022-12-03T00:33:26.629Z,78748.31
2022-12-03T00:35:55.668Z,78738.41
2022-12-03T00:38:24.369Z,78756.88
2022-12-03T00:40:53.366Z,78735.75
2022-12-03T00:43:21.942Z,78767.41
2022-12-03T00:45:50.938Z,78747.63
2022-12-03T00:48:20.373Z,78757.50
2022-12-03T00:50:49.433Z,78756.81
2022-12-03T00:53:19.327Z,78750.19
2022-12-03T00:55:51.678Z,78760.81
2022-12-03T00:58:20.750Z,78766.81
2022-12-03T01:00:49.300Z,78769.44
2022-12-03T01:03:18.199Z,78771.41
2022-12-03T01:05:46.804Z,78772.09
2022-12-03T01:08:15.965Z,78774.06
2022-12-03T01:10:44.778Z,78774.09
2022-12-03T01:13:13.569Z,78743.75
2022-12-03T01:15:42.297Z,78745.09
2022-12-03T01:18:11.306Z,78751.69
2022-12-03T01:20:39.902Z,78785.34
2022-12-03T01:23:08.798Z,78778.72
2022-12-03T01:25:37.740Z,78778.00
2022-12-03T01:28:06.862Z,78783.28
2022-12-03T01:30:55.417Z,78791.16
2022-12-03T01:33:24.185Z,78786.53
2022-12-03T01:35:52.785Z,78772.00
2022-12-03T01:38:23.273Z,78789.81
2022-12-03T01:40:52.377Z,78803.66
2022-12-03T01:43:21.894Z,78797.00
2022-12-03T01:45:50.690Z,78791.06
2022-12-03T01:48:19.463Z,78810.19
2022-12-03T01:50:48.342Z,78728.94
2022-12-03T01:53:19.857Z,78796.97
2022-12-03T01:55:49.175Z,78814.16
2022-12-03T01:58:22.457Z,78825.38
2022-12-03T02:00:51.874Z,78787.13
2022-12-03T02:03:26.570Z,78823.53
2022-12-03T02:05:55.831Z,78805.81
2022-12-03T02:08:42.732Z,78832.25
2022-12-03T02:11:26.605Z,78827.56
2022-12-03T02:14:00.817Z,78828.81
2022-12-03T02:16:30.844Z,78833.25
2022-12-03T02:19:00.043Z,78807.38
2022-12-03T02:21:48.872Z,78846.06
2022-12-03T02:24:37.018Z,78852.34
2022-12-03T02:27:05.936Z,78848.03
2022-12-03T02:29:34.701Z,78858.25
2022-12-03T02:32:03.722Z,78847.94
2022-12-03T02:34:44.476Z,78851.47
2022-12-03T02:37:18.552Z,78847.84
2022-12-03T02:39:53.209Z,78846.66
2022-12-03T02:42:38.950Z,78847.41
2022-12-03T02:45:31.979Z,78846.72
2022-12-03T02:48:08.345Z,78859.38
2022-12-03T02:50:45.042Z,78861.72
2022-12-03T02:53:19.093Z,78866.69
2022-12-03T02:55:50.100Z,78839.94
2022-12-03T02:58:20.339Z,78871.00
2022-12-03T03:00:50.386Z,78835.44
2022-12-03T03:03:21.534Z,78836.91
2022-12-03T03:05:51.904Z,78863.38
2022-12-03T03:08:21.823Z,78872.63
2022-12-03T03:10:51.271Z,78861.75
2022-12-03T03:13:22.001Z,78863.69
2022-12-03T03:15:50.770Z,78859.91
2022-12-03T03:18:19.848Z,78846.78
2022-12-03T03:20:49.135Z,78893.41
2022-12-03T03:23:23.693Z,78884.88
2022-12-03T03:26:04.588Z,78892.06
2022-12-03T03:28:35.702Z,78880.25
2022-12-03T03:31:08.098Z,78900.44
2022-12-03T03:33:40.518Z,78899.94
2022-12-03T03:36:10.411Z,78913.91
2022-12-03T03:38:40.603Z,78896.78
2022-12-03T03:41:11.179Z,78923.78
2022-12-03T03:43:43.108Z,78907.84
2022-12-03T03:46:13.255Z,78921.81
2022-12-03T03:48:43.665Z,78920.34
2022-12-03T03:51:14.080Z,78928.31
2022-12-03T03:53:45.553Z,78943.63
2022-12-03T03:56:15.999Z,78930.34
2022-12-03T03:58:45.056Z,78913.25
2022-12-03T04:01:15.346Z,78937.66
2022-12-03T04:03:45.041Z,78944.88
2022-12-03T04:06:13.778Z,78952.75
2022-12-03T04:08:42.654Z,78941.25
2022-12-03T04:11:30.004Z,78948.88
2022-12-03T04:13:59.126Z,78965.88
2022-12-03T04:16:27.846Z,78951.44
2022-12-03T04:18:56.845Z,78948.16
2022-12-03T04:21:43.790Z,78934.44
2022-12-03T04:24:13.472Z,78950.63
2022-12-03T04:27:00.352Z,78981.63
2022-12-03T04:29:29.519Z,78976.53
2022-12-03T04:32:17.016Z,78960.59
2022-12-03T04:35:04.820Z,78988.84
2022-12-03T04:37:33.751Z,78978.69
2022-12-03T04:40:02.585Z,78943.69
2022-12-03T04:42:32.741Z,78978.38
2022-12-03T04:45:01.586Z,78974.31
2022-12-03T04:47:31.539Z,78975.41
2022-12-03T04:50:02.466Z,78958.22
2022-12-03T04:52:31.116Z,78960.56
2022-12-03T04:55:00.517Z,78965.38
2022-12-03T04:57:29.390Z,78955.88
2022-12-03T04:59:58.446Z,78984.03
2022-12-03T05:02:27.419Z,78960.06
2022-12-03T05:04:56.806Z,78976.53
2022-12-03T05:07:25.625Z,78976.69
2022-12-03T05:09:54.975Z,78985.81
2022-12-03T05:12:23.593Z,78974.97
2022-12-03T05:14:53.275Z,78967.56
2022-12-03T05:17:22.206Z,78980.94
2022-12-03T05:20:09.345Z,78992.56
2022-12-03T05:22:38.188Z,78988.19
2022-12-03T05:25:07.837Z,78984.34
2022-12-03T05:27:36.797Z,78994.00
2022-12-03T05:30:06.079Z,78995.00
2022-12-03T05:32:34.970Z,79001.19
2022-12-03T05:35:03.612Z,79007.75
2022-12-03T05:37:32.419Z,78992.34
2022-12-03T05:40:01.003Z,78987.03
2022-12-03T05:42:48.345Z,78991.66
2022-12-03T05:45:17.315Z,78984.00
2022-12-03T05:47:46.018Z,78994.50
2022-12-03T05:50:14.957Z,78993.97
2022-12-03T05:52:43.991Z,78989.50
2022-12-03T05:55:13.641Z,78993.97
2022-12-03T05:57:42.463Z,78978.97
2022-12-03T06:00:16.166Z,78993.22
2022-12-03T06:02:45.838Z,78963.03
2022-12-03T06:05:16.496Z,78990.13
2022-12-03T06:07:45.813Z,78990.72
2022-12-03T06:10:17.673Z,78994.84
2022-12-03T06:12:46.556Z,78954.25
2022-12-03T06:15:16.083Z,78980.19
2022-12-03T06:17:45.763Z,78974.31
2022-12-03T06:20:17.667Z,78987.88
2022-12-03T06:22:47.126Z,78984.88
2022-12-03T06:25:16.924Z,78982.16
2022-12-03T06:27:46.332Z,78970.38
2022-12-03T06:30:15.768Z,78970.03
2022-12-03T06:32:44.741Z,78962.44
2022-12-03T06:35:22.379Z,78949.28
2022-12-03T06:37:51.418Z,78949.03
2022-12-03T06:40:20.162Z,78952.19
2022-12-03T06:42:49.143Z,78968.56
2022-12-03T06:45:17.794Z,78944.13
2022-12-03T06:47:46.717Z,78946.00
2022-12-03T06:50:15.952Z,78949.97
2022-12-03T06:52:44.762Z,78950.91
2022-12-03T06:55:14.770Z,78957.03
2022-12-03T06:57:43.711Z,78937.56
2022-12-03T07:00:13.526Z,78955.41
2022-12-03T07:02:42.645Z,78943.84
2022-12-03T07:05:15.114Z,78947.38
2022-12-03T07:07:43.920Z,78918.03
2022-12-03T07:10:13.087Z,78915.34
2022-12-03T07:12:41.988Z,78940.06
2022-12-03T07:15:11.565Z,78942.94
2022-12-03T07:17:40.855Z,78932.94
2022-12-03T07:20:10.456Z,78924.84
2022-12-03T07:22:39.259Z,78927.34
2022-12-03T07:25:08.535Z,78925.81
2022-12-03T07:27:37.356Z,78920.22
2022-12-03T07:30:08.804Z,78922.66
2022-12-03T07:32:37.588Z,78932.00
2022-12-03T07:35:08.385Z,78920.13
2022-12-03T07:37:38.473Z,78924.75
2022-12-03T07:40:07.959Z,78919.91
2022-12-03T07:42:37.244Z,78903.38
2022-12-03T07:45:06.539Z,78904.66
2022-12-03T07:47:36.263Z,78913.06
2022-12-03T07:50:05.909Z,78898.44
2022-12-03T07:52:35.091Z,78897.09
2022-12-03T07:55:03.713Z,78894.47
2022-12-03T07:57:32.596Z,78906.94
2022-12-03T08:00:01.370Z,78886.97
2022-12-03T08:02:30.196Z,78885.06
2022-12-03T08:04:59.077Z,78878.00
2022-12-03T08:07:28.139Z,78885.69
2022-12-03T08:09:57.476Z,78895.88
2022-12-03T08:12:41.149Z,78883.44
2022-12-03T08:15:20.187Z,78893.16
2022-12-03T08:17:55.859Z,78882.78
2022-12-03T08:20:45.314Z,78889.72
2022-12-03T08:23:24.087Z,78886.66
2022-12-03T08:25:54.520Z,78891.16
2022-12-03T08:28:27.740Z,78877.69
2022-12-03T08:31:21.584Z,78874.75
2022-12-03T08:33:52.585Z,78883.44
2022-12-03T08:36:25.716Z,78882.75
2022-12-03T08:38:57.950Z,78867.31
2022-12-03T08:41:45.441Z,78853.75
2022-12-03T08:44:31.298Z,78870.09
2022-12-03T08:47:14.913Z,78871.38
2022-12-03T08:49:47.684Z,78878.53
2022-12-03T08:52:27.955Z,78878.31
2022-12-03T08:54:57.981Z,78853.00
2022-12-03T08:57:30.859Z,78872.59
2022-12-03T09:00:25.656Z,78859.34
2022-12-03T09:02:59.704Z,78862.84
2022-12-03T09:05:35.474Z,78862.44
2022-12-03T09:08:04.225Z,78870.84
2022-12-03T09:10:32.906Z,78864.13
2022-12-03T09:13:01.751Z,78860.84
2022-12-03T09:15:30.318Z,78872.44
2022-12-03T09:17:59.297Z,78852.44
2022-12-03T09:20:28.390Z,78877.50
2022-12-03T09:22:57.088Z,78831.28
2022-12-03T09:25:26.145Z,78850.28
2022-12-03T09:27:55.366Z,78860.41
2022-12-03T09:30:24.031Z,78861.72
2022-12-03T09:32:52.762Z,78860.63
2022-12-03T09:35:21.452Z,78840.88
2022-12-03T09:37:50.389Z,78853.50
2022-12-03T09:40:19.314Z,78863.97
2022-12-03T09:42:48.653Z,78845.66
2022-12-03T09:45:17.890Z,78872.66
2022-12-03T09:47:49.162Z,78853.94
2022-12-03T09:50:22.844Z,78857.63
2022-12-03T09:52:53.172Z,78871.19
2022-12-03T09:55:27.763Z,78867.19
2022-12-03T09:57:58.711Z,78866.19
2022-12-03T10:00:47.924Z,78860.56
2022-12-03T10:03:22.118Z,78862.41
2022-12-03T10:05:55.971Z,78856.16
2022-12-03T10:08:30.791Z,78838.25
2022-12-03T10:11:01.586Z,78838.00
2022-12-03T10:13:32.653Z,78840.16
2022-12-03T10:16:02.281Z,78848.06
2022-12-03T10:18:38.290Z,78859.00
2022-12-03T10:21:36.163Z,78849.09
2022-12-03T10:24:27.685Z,78818.31
2022-12-03T10:26:59.273Z,78844.84
2022-12-03T10:29:34.060Z,78834.09
2022-12-03T10:32:09.125Z,78820.50
2022-12-03T10:34:40.654Z,78841.94
2022-12-03T10:37:12.204Z,78855.81
2022-12-03T10:40:03.972Z,78841.44
2022-12-03T10:42:36.988Z,78844.84
2022-12-03T10:45:16.013Z,78830.22
2022-12-03T10:48:13.769Z,78844.25
2022-12-03T10:51:15.522Z,78840.09
2022-12-03T10:53:44.641Z,78833.50
2022-12-03T10:56:27.034Z,78845.34
2022-12-03T10:58:57.074Z,78850.75
2022-12-03T11:01:27.939Z,78848.75
2022-12-03T11:04:03.828Z,78833.66
2022-12-03T11:06:36.794Z,78843.97
2022-12-03T11:09:09.269Z,78841.34
2022-12-03T11:11:38.380Z,78858.69
2022-12-03T11:14:07.320Z,78835.28
2022-12-03T11:16:56.681Z,78845.09
2022-12-03T11:19:48.008Z,78857.84
2022-12-03T11:22:29.245Z,78832.03
2022-12-03T11:25:28.697Z,78860.34
2022-12-03T11:28:16.424Z,78866.94
2022-12-03T11:31:02.081Z,78866.56
2022-12-03T11:33:37.450Z,78848.56
2022-12-03T11:36:09.388Z,78871.81
2022-12-03T11:38:52.931Z,78865.03
2022-12-03T11:41:34.484Z,78843.00
2022-12-03T11:44:31.251Z,78866.91
2022-12-03T11:47:02.142Z,78867.84
2022-12-03T11:49:47.525Z,78849.63
2022-12-03T11:52:40.962Z,78860.38
2022-12-03T11:55:27.545Z,78858.56
2022-12-03T11:58:05.718Z,78812.59
2022-12-03T12:00:34.916Z,78854.28
2022-12-03T12:03:32.883Z,78863.56
2022-12-03T12:06:08.443Z,78867.00
2022-12-03T12:08:43.363Z,78842.03
2022-12-03T12:11:23.025Z,78842.72
2022-12-03T12:13:55.986Z,78861.94
2022-12-03T12:16:54.543Z,78871.91
2022-12-03T12:19:39.704Z,78833.03
2022-12-03T12:22:28.830Z,78870.03
2022-12-03T12:25:26.622Z,78877.38
2022-12-03T12:27:56.119Z,78878.06
2022-12-03T12:30:24.989Z,78874.13
2022-12-03T12:33:13.786Z,78866.28
2022-12-03T12:35:43.349Z,78826.72
2022-12-03T12:38:18.459Z,78876.22
2022-12-03T12:40:50.519Z,78888.78
2022-12-03T12:43:24.744Z,78878.94
2022-12-03T12:45:56.429Z,78863.78
2022-12-03T12:48:26.951Z,78894.81
2022-12-03T12:51:12.636Z,78898.81
2022-12-03T12:53:46.115Z,78911.41
2022-12-03T12:56:32.744Z,78875.75
2022-12-03T12:59:12.177Z,78896.22
2022-12-03T13:01:42.639Z,78900.16
2022-12-03T13:04:17.035Z,78896.16
2022-12-03T13:06:47.994Z,78900.16
2022-12-03T13:09:19.914Z,78902.81
2022-12-03T13:11:54.707Z,78902.81
2022-12-03T13:14:32.322Z,78910.09
2022-12-03T13:17:03.287Z,78901.53
2022-12-03T13:19:46.683Z,78914.75
2022-12-03T13:22:20.897Z,78900.22
2022-12-03T13:24:51.970Z,78890.31
2022-12-03T13:27:21.155Z,78920.69
2022-12-03T13:30:03.106Z,78919.41
2022-12-03T13:32:38.181Z,78924.69
2022-12-03T13:35:25.832Z,78924.00
2022-12-03T13:37:55.165Z,78911.47
2022-12-03T13:40:32.811Z,78935.91
2022-12-03T13:43:05.271Z,78939.88
2022-12-03T13:45:38.693Z,78927.34
2022-12-03T13:48:32.322Z,78913.44
2022-12-03T13:51:14.698Z,78935.91
2022-12-03T13:53:44.206Z,78931.94
2022-12-03T13:56:42.223Z,78947.16
2022-12-03T13:59:11.273Z,78948.47
2022-12-03T14:01:40.249Z,78906.84
2022-12-03T14:04:09.289Z,78950.44
2022-12-03T14:06:38.544Z,78948.47
2022-12-03T14:09:07.788Z,78948.44
2022-12-03T14:11:54.938Z,78941.16
2022-12-03T14:14:23.814Z,78952.38
2022-12-03T14:16:59.843Z,78957.66
2022-12-03T14:19:29.395Z,78964.94
2022-12-03T14:21:58.129Z,78943.78
2022-12-03T14:24:27.445Z,78957.00
2022-12-03T14:26:56.306Z,78968.84
2022-12-03T14:29:25.282Z,78953.00
2022-12-03T14:31:54.286Z,78965.56
2022-12-03T14:34:23.286Z,78972.84
2022-12-03T14:36:52.396Z,78964.25
2022-12-03T14:39:21.305Z,78960.31
2022-12-03T14:42:08.338Z,78972.22
2022-12-03T14:44:37.356Z,78977.47
2022-12-03T14:47:06.285Z,78970.84
2022-12-03T14:49:35.191Z,78970.84
2022-12-03T14:52:03.804Z,78972.84
2022-12-03T14:54:38.533Z,78984.72
2022-12-03T14:57:07.530Z,78976.09
2022-12-03T14:59:36.115Z,78982.03
2022-12-03T15:02:10.232Z,78964.22
2022-12-03T15:04:40.164Z,78986.06
2022-12-03T15:07:10.060Z,78982.09
2022-12-03T15:09:41.279Z,78984.78
2022-12-03T15:12:12.397Z,78975.47
2022-12-03T15:14:42.514Z,78988.03
2022-12-03T15:17:11.452Z,78986.03
2022-12-03T15:19:40.138Z,78970.13
2022-12-03T15:22:08.859Z,78986.03
2022-12-03T15:24:38.092Z,78978.81
2022-12-03T15:27:06.765Z,78986.06
2022-12-03T15:29:35.414Z,78984.69
2022-12-03T15:32:04.293Z,78945.00
2022-12-03T15:34:32.931Z,78961.56
2022-12-03T15:37:01.705Z,79004.56
2022-12-03T15:39:35.733Z,78980.06
2022-12-03T15:42:06.109Z,78958.19
2022-12-03T15:44:35.006Z,78982.03
2022-12-03T15:47:05.034Z,78983.38
2022-12-03T15:49:36.713Z,78997.25
2022-12-03T15:52:05.805Z,78977.38
2022-12-03T15:54:35.433Z,78995.88
2022-12-03T15:57:04.335Z,78972.69
2022-12-03T15:59:33.265Z,79001.09
2022-12-03T16:02:02.068Z,78995.13
2022-12-03T16:04:30.877Z,78981.84
2022-12-03T16:06:59.798Z,78981.91
2022-12-03T16:09:28.561Z,78973.31
2022-12-03T16:11:57.917Z,79010.34
2022-12-03T16:14:28.444Z,79015.59
2022-12-03T16:17:03.778Z,78976.53
2022-12-03T16:19:32.757Z,78999.03
2022-12-03T16:22:02.627Z,78983.16
2022-12-03T16:24:31.575Z,78998.41
2022-12-03T16:27:00.311Z,79009.63
2022-12-03T16:29:29.221Z,78999.75
2022-12-03T16:31:57.900Z,79010.97
2022-12-03T16:34:39.517Z,79008.34
2022-12-03T16:37:12.467Z,79012.28
2022-12-03T16:39:49.494Z,79012.31
2022-12-03T16:42:20.051Z,79009.66
2022-12-03T16:45:16.075Z,79007.06
2022-12-03T16:47:48.246Z,79013.72
2022-12-03T16:50:27.594Z,79003.78
2022-12-03T16:52:58.924Z,79016.31
2022-12-03T16:55:28.566Z,79019.69
2022-12-03T16:57:57.378Z,78952.84
2022-12-03T17:00:30.375Z,78978.63
2022-12-03T17:02:59.340Z,79009.72
2022-12-03T17:05:27.979Z,79011.66
2022-12-03T17:08:05.865Z,79001.72
2022-12-03T17:10:43.762Z,79012.97
2022-12-03T17:13:12.666Z,79009.63
2022-12-03T17:15:42.171Z,78998.34
2022-12-03T17:18:11.263Z,79014.25
2022-12-03T17:20:40.232Z,79022.91
2022-12-03T17:23:09.283Z,79007.66
2022-12-03T17:25:38.110Z,79001.78
2022-12-03T17:28:06.944Z,78987.84
2022-12-03T17:30:35.719Z,79015.00
2022-12-03T17:33:04.746Z,79031.50
2022-12-03T17:35:33.831Z,79024.19
2022-12-03T17:38:05.735Z,79036.09
2022-12-03T17:40:36.065Z,79031.44
2022-12-03T17:43:04.717Z,79034.09
2022-12-03T17:45:33.670Z,78988.47
2022-12-03T17:48:02.639Z,78974.63
2022-12-03T17:50:31.610Z,78996.44
2022-12-03T17:53:00.471Z,79026.84
2022-12-03T17:55:37.275Z,79016.34
2022-12-03T17:58:14.314Z,79001.81
2022-12-03T18:00:45.594Z,79013.75
2022-12-03T18:03:17.653Z,79026.31
2022-12-03T18:05:46.595Z,78993.88
2022-12-03T18:08:15.443Z,78986.59
2022-12-03T18:10:44.243Z,78981.31
2022-12-03T18:13:17.236Z,79001.84
2022-12-03T18:15:51.721Z,78983.38
2022-12-03T18:18:21.001Z,79006.50
2022-12-03T18:20:49.955Z,79002.47
2022-12-03T18:23:18.920Z,79007.13
2022-12-03T18:25:48.164Z,79015.06
2022-12-03T18:28:17.145Z,78967.53
2022-12-03T18:30:52.633Z,78975.47
2022-12-03T18:33:24.155Z,79004.59
2022-12-03T18:35:58.682Z,79015.16
2022-12-03T18:38:32.034Z,79005.22
2022-12-03T18:41:01.423Z,79005.84
2022-12-03T18:43:35.858Z,78997.28
2022-12-03T18:46:31.145Z,78984.72
2022-12-03T18:49:02.555Z,78981.44
2022-12-03T18:51:31.854Z,78989.38
2022-12-03T18:54:00.411Z,79005.94
2022-12-03T18:56:29.219Z,78992.03
2022-12-03T18:58:57.857Z,78981.47
2022-12-03T19:01:30.154Z,78976.16
2022-12-03T19:03:59.150Z,78998.00
2022-12-03T19:06:29.885Z,78990.06
2022-12-03T19:08:59.294Z,78985.44
2022-12-03T19:11:27.978Z,78992.72
2022-12-03T19:13:58.242Z,78993.38
2022-12-03T19:16:28.893Z,78959.66
2022-12-03T19:18:59.504Z,78972.22
2022-12-03T19:21:33.543Z,78976.78
2022-12-03T19:24:23.850Z,78986.06
2022-12-03T19:26:55.999Z,78974.81
2022-12-03T19:29:25.742Z,78966.28
2022-12-03T19:31:54.511Z,78980.78
2022-12-03T19:34:23.546Z,78992.03
2022-12-03T19:36:52.253Z,78982.09
2022-12-03T19:39:26.371Z,78961.66
2022-12-03T19:41:55.216Z,78979.50
2022-12-03T19:44:23.811Z,78978.81
2022-12-03T19:46:53.759Z,78959.00
2022-12-03T19:49:22.620Z,78931.28
2022-12-03T19:51:51.553Z,78987.44
2022-12-03T19:54:20.275Z,78977.50
2022-12-03T19:56:51.749Z,78954.97
2022-12-03T19:59:21.244Z,78956.97
2022-12-03T20:01:50.374Z,78970.88
2022-12-03T20:04:21.205Z,78968.88
2022-12-03T20:06:50.169Z,78986.72
2022-12-03T20:09:18.977Z,78962.25
2022-12-03T20:11:51.127Z,78972.19
2022-12-03T20:14:20.127Z,78976.16
2022-12-03T20:16:49.959Z,78970.81
2022-12-03T20:19:19.451Z,78965.56
2022-12-03T20:21:48.194Z,78966.22
2022-12-03T20:24:18.796Z,78974.13
2022-12-03T20:26:49.283Z,78958.91
2022-12-03T20:29:18.882Z,78968.13
2022-12-03T20:31:47.529Z,78958.19
2022-12-03T20:34:16.367Z,78946.94
2022-12-03T20:36:46.347Z,78941.63
2022-12-03T20:39:15.322Z,78945.56
2022-12-03T20:41:44.021Z,78954.19
2022-12-03T20:44:14.801Z,78931.75
2022-12-03T20:46:43.770Z,78958.81
2022-12-03T20:49:12.525Z,78948.25
2022-12-03T20:51:43.304Z,78960.16
2022-12-03T20:54:11.901Z,78966.06
2022-12-03T20:56:40.685Z,78940.31
2022-12-03T20:59:13.028Z,78965.47
2022-12-03T21:01:42.879Z,78923.81
2022-12-03T21:04:14.298Z,78957.56
2022-12-03T21:06:43.487Z,78941.09
2022-12-03T21:09:12.886Z,78959.56
2022-12-03T21:11:43.273Z,78960.88
2022-12-03T21:14:12.568Z,78944.34
2022-12-03T21:17:07.113Z,78949.03
2022-12-03T21:19:32.305Z,78957.56
2022-12-03T21:22:01.095Z,78966.78
2022-12-03T21:24:30.852Z,78935.72
2022-12-03T21:26:59.683Z,78956.19
2022-12-03T21:29:28.688Z,78952.88
2022-12-03T21:31:57.413Z,78938.41
2022-12-03T21:34:28.115Z,78957.53
2022-12-03T21:37:01.662Z,78954.19
2022-12-03T21:39:30.439Z,78962.16
2022-12-03T21:42:18.673Z,78936.38
2022-12-03T21:44:48.255Z,78964.16
2022-12-03T21:47:16.995Z,78946.31
2022-12-03T21:49:45.822Z,78960.81
2022-12-03T21:52:14.433Z,78962.81
2022-12-03T21:54:43.300Z,78977.38
2022-12-03T21:57:13.267Z,78952.25
2022-12-03T21:59:42.321Z,78958.84
2022-12-03T22:02:11.821Z,78940.31
2022-12-03T22:04:41.274Z,78950.19
2022-12-03T22:07:10.728Z,78963.38
2022-12-03T22:09:39.826Z,78958.69
2022-12-03T22:12:08.600Z,78951.34
2022-12-03T22:14:38.334Z,78964.56
2022-12-03T22:17:07.104Z,78934.19
2022-12-03T22:19:36.577Z,78969.88
2022-12-03T22:22:05.302Z,78948.00
2022-12-03T22:24:34.141Z,78961.97
2022-12-03T22:27:03.012Z,78946.03
2022-12-03T22:29:32.392Z,78946.00
2022-12-03T22:32:01.080Z,78955.22
2022-12-03T22:34:29.933Z,78947.25
2022-12-03T22:36:58.509Z,78943.34
2022-12-03T22:39:27.508Z,78950.00
2022-12-03T22:41:56.193Z,78942.09
2022-12-03T22:44:25.219Z,78933.53
2022-12-03T22:46:53.860Z,78939.53
2022-12-03T22:49:22.733Z,78946.06
2022-12-03T22:51:51.418Z,78940.84
2022-12-03T22:54:23.903Z,78932.94
2022-12-03T22:56:53.188Z,78924.97
2022-12-03T22:59:21.868Z,78874.09
2022-12-03T23:01:50.824Z,78929.69
2022-12-03T23:04:19.554Z,78905.22
2022-12-03T23:06:48.728Z,78869.50
2022-12-03T23:09:17.531Z,78935.63
2022-12-03T23:11:46.857Z,78944.88
2022-12-03T23:14:15.591Z,78916.47
2022-12-03T23:16:44.447Z,78944.25
2022-12-03T23:19:13.368Z,78864.25
2022-12-03T23:21:42.612Z,78913.81
2022-12-03T23:24:11.665Z,78929.69
2022-12-03T23:26:40.625Z,78917.16
2022-12-03T23:29:09.448Z,78886.06
2022-12-03T23:31:38.350Z,78894.75
2022-12-03T23:34:07.598Z,78869.66
2022-12-03T23:36:36.781Z,78919.97
2022-12-03T23:39:05.510Z,78901.38
2022-12-03T23:41:34.479Z,78923.78
2022-12-03T23:44:03.227Z,78903.91
2022-12-03T23:46:32.095Z,78908.63
2022-12-03T23:49:01.149Z,78929.69
2022-12-03T23:51:30.524Z,78909.88
2022-12-03T23:53:59.200Z,78923.81
2022-12-03T23:56:30.826Z,78908.53
2022-12-03T23:59:00.217Z,78924.31
